Aérodrome :
LOGIN :

S'inscrire | Disclaimer

   EN    FR    IT 

 










Légende :    VFR   VFR Marginal   IFR   IFR Intensif   IFR Très Intensif
Visi : 
Plafond : 
>= 8 km
>= 3000ft
5 à 8 km
1000 à 3000 ft
1500m à 5 km
500 à 1000 ft
800 à 1500m
200 à 500 ft
< 800m
< 200 ft
Symboles :   Orages  Brouillard  Fortes neiges  Fortes précipitations  Vent > 20 kt
SIGMETs :   Divers  Orages  Givrage  Turbulence  Onde Orograph.  Cendres Volcan.







- Altitude de l'aérodrome : 183 ft
- Code IATA : HAJ


EDDV - Hanover/Langenhagen Int.

DERNIER METAR :
  • 172050Z 21005KT 9999 BKN049 04/01 Q1023 NOSIG

METARs EXPIRÉS :
  • 172020Z 20005KT 9999 FEW045 SCT250 04/01 Q1024 NOSIG
  • 171950Z 22005KT CAVOK 04/01 Q1024 NOSIG
  • 171920Z 22005KT CAVOK 04/01 Q1024 NOSIG
  • 171850Z 23004KT CAVOK 04/01 Q1025 NOSIG
  • 171820Z 23004KT 9999 FEW047 04/01 Q1025 NOSIG

TAF TAF EDDV
Valide du 17 à 18h jusqu'au 18 à 18h UTC


171700Z 1718/1818 23006KT 9999 FEW030
BECMG 1807/1809 24015G30KT
TEMPO 1812/1815 SHRA
PROB30
TEMPO 1813/1815 BKN014CB
BECMG 1813/1815 28012KT
PROB30
TEMPO 1815/1816 29015G25KT SHRA
Pas de NOTAMs connus pour ce terrain.



MET'MAP, la Météo Aéronautique d'un coup d'oeil ! - Copyright ORBIFLY Décembre 2007 - Disclaimer

ORBIFLY MET'MAP TEAM :

Programmation & Développement : Alexandra Zaïnal
Conception & Développement : Baudouin d'Aumeries
Co-Programmation & Développement : Marc-Olivier Méhu
Soutien technique & logistique : Manuel Goepfert

Contact : metmap@orbifly.com




SOURCES & CREDITS :

   NOAA